sensor_id;sensor_type;location;lat;lon;timestamp;temperature;humidity
21540;DHT22;10931;52.164;5.518;2023-04-08T00:00:45;17.80;59.70
21540;DHT22;10931;52.164;5.518;2023-04-08T00:03:13;17.80;59.80
21540;DHT22;10931;52.164;5.518;2023-04-08T00:05:39;17.80;59.70
21540;DHT22;10931;52.164;5.518;2023-04-08T00:08:05;17.80;59.80
21540;DHT22;10931;52.164;5.518;2023-04-08T00:10:31;17.80;59.70
21540;DHT22;10931;52.164;5.518;2023-04-08T00:12:56;17.80;59.70
21540;DHT22;10931;52.164;5.518;2023-04-08T00:15:22;17.80;59.80
21540;DHT22;10931;52.164;5.518;2023-04-08T00:17:48;17.80;59.70
21540;DHT22;10931;52.164;5.518;2023-04-08T00:20:13;17.80;59.80
21540;DHT22;10931;52.164;5.518;2023-04-08T00:22:40;17.80;59.80
21540;DHT22;10931;52.164;5.518;2023-04-08T00:25:16;17.80;59.70
21540;DHT22;10931;52.164;5.518;2023-04-08T00:27:45;17.80;59.70
21540;DHT22;10931;52.164;5.518;2023-04-08T00:30:14;17.80;59.70
21540;DHT22;10931;52.164;5.518;2023-04-08T00:32:40;17.80;59.70
21540;DHT22;10931;52.164;5.518;2023-04-08T00:35:06;17.80;59.80
21540;DHT22;10931;52.164;5.518;2023-04-08T00:37:33;17.80;59.70
21540;DHT22;10931;52.164;5.518;2023-04-08T00:39:59;17.80;59.80
21540;DHT22;10931;52.164;5.518;2023-04-08T00:42:25;17.80;59.80
21540;DHT22;10931;52.164;5.518;2023-04-08T00:44:51;17.80;59.80
21540;DHT22;10931;52.164;5.518;2023-04-08T00:47:17;17.80;59.80
21540;DHT22;10931;52.164;5.518;2023-04-08T00:49:49;17.80;59.80
21540;DHT22;10931;52.164;5.518;2023-04-08T00:52:15;17.80;59.80
21540;DHT22;10931;52.164;5.518;2023-04-08T00:54:44;17.80;59.80
21540;DHT22;10931;52.164;5.518;2023-04-08T00:57:16;17.80;59.80
21540;DHT22;10931;52.164;5.518;2023-04-08T00:59:42;17.80;59.80
21540;DHT22;10931;52.164;5.518;2023-04-08T01:02:30;17.80;59.80
21540;DHT22;10931;52.164;5.518;2023-04-08T01:05:07;17.80;59.80
21540;DHT22;10931;52.164;5.518;2023-04-08T01:07:48;17.80;59.80
21540;DHT22;10931;52.164;5.518;2023-04-08T01:10:17;17.70;59.70
21540;DHT22;10931;52.164;5.518;2023-04-08T01:12:55;17.70;60.50
21540;DHT22;10931;52.164;5.518;2023-04-08T01:15:25;17.70;59.70
21540;DHT22;10931;52.164;5.518;2023-04-08T01:17:56;17.70;59.70
21540;DHT22;10931;52.164;5.518;2023-04-08T01:20:24;17.70;59.70
21540;DHT22;10931;52.164;5.518;2023-04-08T01:25:36;17.70;59.80
21540;DHT22;10931;52.164;5.518;2023-04-08T01:28:22;17.70;59.70
21540;DHT22;10931;52.164;5.518;2023-04-08T01:30:49;17.70;59.70
21540;DHT22;10931;52.164;5.518;2023-04-08T01:33:17;17.70;59.80
21540;DHT22;10931;52.164;5.518;2023-04-08T01:35:44;17.70;59.80
21540;DHT22;10931;52.164;5.518;2023-04-08T01:38:19;17.70;59.70
21540;DHT22;10931;52.164;5.518;2023-04-08T01:40:46;17.70;59.70
21540;DHT22;10931;52.164;5.518;2023-04-08T01:43:16;17.70;59.70
21540;DHT22;10931;52.164;5.518;2023-04-08T01:45:47;17.70;59.80
21540;DHT22;10931;52.164;5.518;2023-04-08T01:48:14;17.70;59.70
21540;DHT22;10931;52.164;5.518;2023-04-08T01:50:45;17.70;59.80
21540;DHT22;10931;52.164;5.518;2023-04-08T01:53:11;17.70;59.80
21540;DHT22;10931;52.164;5.518;2023-04-08T01:55:39;17.70;59.80
21540;DHT22;10931;52.164;5.518;2023-04-08T01:58:08;17.70;59.80
21540;DHT22;10931;52.164;5.518;2023-04-08T02:00:36;17.70;59.80
21540;DHT22;10931;52.164;5.518;2023-04-08T02:03:07;17.70;59.80
21540;DHT22;10931;52.164;5.518;2023-04-08T02:05:34;17.70;59.80
21540;DHT22;10931;52.164;5.518;2023-04-08T02:08:07;17.70;59.80
21540;DHT22;10931;52.164;5.518;2023-04-08T02:10:33;17.70;59.80
21540;DHT22;10931;52.164;5.518;2023-04-08T02:12:59;17.70;59.80
21540;DHT22;10931;52.164;5.518;2023-04-08T02:15:33;17.70;59.80
21540;DHT22;10931;52.164;5.518;2023-04-08T02:18:07;17.70;59.80
21540;DHT22;10931;52.164;5.518;2023-04-08T02:20:43;17.60;59.70
21540;DHT22;10931;52.164;5.518;2023-04-08T02:23:19;17.70;59.80
21540;DHT22;10931;52.164;5.518;2023-04-08T02:25:46;17.70;59.80
21540;DHT22;10931;52.164;5.518;2023-04-08T02:28:32;17.60;59.70
21540;DHT22;10931;52.164;5.518;2023-04-08T02:31:02;17.60;59.80
21540;DHT22;10931;52.164;5.518;2023-04-08T02:33:31;17.60;59.70
21540;DHT22;10931;52.164;5.518;2023-04-08T02:35:59;17.60;59.70
21540;DHT22;10931;52.164;5.518;2023-04-08T02:38:26;17.60;59.80
21540;DHT22;10931;52.164;5.518;2023-04-08T02:40:55;17.60;59.70
21540;DHT22;10931;52.164;5.518;2023-04-08T02:43:21;17.60;59.80
21540;DHT22;10931;52.164;5.518;2023-04-08T02:45:51;17.60;60.50
21540;DHT22;10931;52.164;5.518;2023-04-08T02:48:16;17.60;59.80
21540;DHT22;10931;52.164;5.518;2023-04-08T02:50:42;17.60;59.80
21540;DHT22;10931;52.164;5.518;2023-04-08T02:53:08;17.60;59.80
21540;DHT22;10931;52.164;5.518;2023-04-08T02:55:37;17.60;59.80
21540;DHT22;10931;52.164;5.518;2023-04-08T02:58:25;17.60;59.80
21540;DHT22;10931;52.164;5.518;2023-04-08T03:00:51;17.60;59.80
21540;DHT22;10931;52.164;5.518;2023-04-08T03:03:21;17.60;59.80
21540;DHT22;10931;52.164;5.518;2023-04-08T03:05:53;17.60;59.80
21540;DHT22;10931;52.164;5.518;2023-04-08T03:08:19;17.60;59.80
21540;DHT22;10931;52.164;5.518;2023-04-08T03:10:45;17.60;59.80
21540;DHT22;10931;52.164;5.518;2023-04-08T03:13:16;17.60;59.80
21540;DHT22;10931;52.164;5.518;2023-04-08T03:15:42;17.60;59.80
21540;DHT22;10931;52.164;5.518;2023-04-08T03:18:08;17.60;59.80
21540;DHT22;10931;52.164;5.518;2023-04-08T03:20:34;17.60;59.80
21540;DHT22;10931;52.164;5.518;2023-04-08T03:23:01;17.50;59.70
21540;DHT22;10931;52.164;5.518;2023-04-08T03:25:26;17.50;59.70
21540;DHT22;10931;52.164;5.518;2023-04-08T03:27:54;17.50;59.70
21540;DHT22;10931;52.164;5.518;2023-04-08T03:30:20;17.50;59.80
21540;DHT22;10931;52.164;5.518;2023-04-08T03:32:45;17.50;59.70
21540;DHT22;10931;52.164;5.518;2023-04-08T03:35:14;17.50;59.70
21540;DHT22;10931;52.164;5.518;2023-04-08T03:37:39;17.50;59.70
21540;DHT22;10931;52.164;5.518;2023-04-08T03:40:06;17.60;59.80
21540;DHT22;10931;52.164;5.518;2023-04-08T03:42:31;17.50;59.70
21540;DHT22;10931;52.164;5.518;2023-04-08T03:44:59;17.50;59.80
21540;DHT22;10931;52.164;5.518;2023-04-08T03:47:25;17.50;59.70
21540;DHT22;10931;52.164;5.518;2023-04-08T03:49:52;17.60;59.80
21540;DHT22;10931;52.164;5.518;2023-04-08T03:52:19;17.50;59.70
21540;DHT22;10931;52.164;5.518;2023-04-08T03:54:44;17.50;59.80
21540;DHT22;10931;52.164;5.518;2023-04-08T03:57:10;17.50;59.70
21540;DHT22;10931;52.164;5.518;2023-04-08T03:59:36;17.50;59.70
21540;DHT22;10931;52.164;5.518;2023-04-08T04:02:04;17.50;59.70
21540;DHT22;10931;52.164;5.518;2023-04-08T04:04:30;17.50;59.70
21540;DHT22;10931;52.164;5.518;2023-04-08T04:06:55;17.50;59.70
21540;DHT22;10931;52.164;5.518;2023-04-08T04:09:21;17.50;59.70
21540;DHT22;10931;52.164;5.518;2023-04-08T04:11:47;17.50;59.70
21540;DHT22;10931;52.164;5.518;2023-04-08T04:14:13;17.50;59.70
21540;DHT22;10931;52.164;5.518;2023-04-08T04:16:39;17.50;59.70
21540;DHT22;10931;52.164;5.518;2023-04-08T04:19:07;17.50;59.70
21540;DHT22;10931;52.164;5.518;2023-04-08T04:21:32;17.50;59.70
21540;DHT22;10931;52.164;5.518;2023-04-08T04:23:58;17.50;59.80
21540;DHT22;10931;52.164;5.518;2023-04-08T04:26:24;17.50;59.70
21540;DHT22;10931;52.164;5.518;2023-04-08T04:28:50;17.40;59.70
21540;DHT22;10931;52.164;5.518;2023-04-08T04:31:19;17.50;59.70
21540;DHT22;10931;52.164;5.518;2023-04-08T04:33:50;17.50;60.50
21540;DHT22;10931;52.164;5.518;2023-04-08T04:36:16;17.50;59.70
21540;DHT22;10931;52.164;5.518;2023-04-08T04:38:43;17.40;59.70
21540;DHT22;10931;52.164;5.518;2023-04-08T04:41:09;17.40;59.70
21540;DHT22;10931;52.164;5.518;2023-04-08T04:43:34;17.40;59.70
21540;DHT22;10931;52.164;5.518;2023-04-08T04:46:01;17.50;59.80
21540;DHT22;10931;52.164;5.518;2023-04-08T04:48:28;17.40;59.70
21540;DHT22;10931;52.164;5.518;2023-04-08T04:51:00;17.40;59.70
21540;DHT22;10931;52.164;5.518;2023-04-08T04:53:27;17.40;59.70
21540;DHT22;10931;52.164;5.518;2023-04-08T04:55:53;17.40;59.70
21540;DHT22;10931;52.164;5.518;2023-04-08T04:58:20;17.40;59.70
21540;DHT22;10931;52.164;5.518;2023-04-08T05:00:45;17.40;59.70
21540;DHT22;10931;52.164;5.518;2023-04-08T05:03:12;17.40;59.70
21540;DHT22;10931;52.164;5.518;2023-04-08T05:05:38;17.40;59.70
21540;DHT22;10931;52.164;5.518;2023-04-08T05:08:03;17.40;59.70
21540;DHT22;10931;52.164;5.518;2023-04-08T05:10:29;17.40;59.70
21540;DHT22;10931;52.164;5.518;2023-04-08T05:12:55;17.40;59.70
21540;DHT22;10931;52.164;5.518;2023-04-08T05:15:21;17.40;59.70
21540;DHT22;10931;52.164;5.518;2023-04-08T05:17:49;17.40;59.70
21540;DHT22;10931;52.164;5.518;2023-04-08T05:20:14;17.40;59.70
21540;DHT22;10931;52.164;5.518;2023-04-08T05:22:40;17.40;59.70
21540;DHT22;10931;52.164;5.518;2023-04-08T05:25:09;17.40;59.70
21540;DHT22;10931;52.164;5.518;2023-04-08T05:27:35;17.40;59.70
21540;DHT22;10931;52.164;5.518;2023-04-08T05:30:00;17.40;59.70
21540;DHT22;10931;52.164;5.518;2023-04-08T05:32:26;17.40;59.70
21540;DHT22;10931;52.164;5.518;2023-04-08T05:34:52;17.40;59.70
21540;DHT22;10931;52.164;5.518;2023-04-08T05:37:20;17.30;59.60
21540;DHT22;10931;52.164;5.518;2023-04-08T05:39:45;17.30;59.60
21540;DHT22;10931;52.164;5.518;2023-04-08T05:42:11;17.40;59.70
21540;DHT22;10931;52.164;5.518;2023-04-08T05:44:38;17.30;59.60
21540;DHT22;10931;52.164;5.518;2023-04-08T05:47:05;17.30;59.60
21540;DHT22;10931;52.164;5.518;2023-04-08T05:49:33;17.30;59.60
21540;DHT22;10931;52.164;5.518;2023-04-08T05:51:58;17.30;59.60
21540;DHT22;10931;52.164;5.518;2023-04-08T05:54:26;17.30;59.60
21540;DHT22;10931;52.164;5.518;2023-04-08T05:56:52;17.30;59.60
21540;DHT22;10931;52.164;5.518;2023-04-08T05:59:17;17.30;59.60
21540;DHT22;10931;52.164;5.518;2023-04-08T06:01:43;17.30;59.60
21540;DHT22;10931;52.164;5.518;2023-04-08T06:04:11;17.30;59.60
21540;DHT22;10931;52.164;5.518;2023-04-08T06:06:38;17.30;60.30
21540;DHT22;10931;52.164;5.518;2023-04-08T06:09:06;17.30;59.60
21540;DHT22;10931;52.164;5.518;2023-04-08T06:11:40;17.30;59.60
21540;DHT22;10931;52.164;5.518;2023-04-08T06:14:16;17.30;59.60
21540;DHT22;10931;52.164;5.518;2023-04-08T06:16:45;17.30;59.60
21540;DHT22;10931;52.164;5.518;2023-04-08T06:19:10;17.30;59.60
21540;DHT22;10931;52.164;5.518;2023-04-08T06:21:36;17.30;59.60
21540;DHT22;10931;52.164;5.518;2023-04-08T06:24:04;17.30;59.60
21540;DHT22;10931;52.164;5.518;2023-04-08T06:26:30;17.30;59.60
21540;DHT22;10931;52.164;5.518;2023-04-08T06:28:55;17.30;59.60
21540;DHT22;10931;52.164;5.518;2023-04-08T06:31:24;17.30;59.60
21540;DHT22;10931;52.164;5.518;2023-04-08T06:33:55;17.30;59.60
21540;DHT22;10931;52.164;5.518;2023-04-08T06:36:21;17.30;59.60
21540;DHT22;10931;52.164;5.518;2023-04-08T06:38:47;17.20;59.60
21540;DHT22;10931;52.164;5.518;2023-04-08T06:41:17;17.20;59.50
21540;DHT22;10931;52.164;5.518;2023-04-08T06:43:43;17.20;59.60
21540;DHT22;10931;52.164;5.518;2023-04-08T06:46:09;17.20;59.50
21540;DHT22;10931;52.164;5.518;2023-04-08T06:48:37;17.20;59.50
21540;DHT22;10931;52.164;5.518;2023-04-08T06:51:15;17.20;59.60
21540;DHT22;10931;52.164;5.518;2023-04-08T06:53:41;17.20;59.60
21540;DHT22;10931;52.164;5.518;2023-04-08T06:56:07;17.20;59.50
21540;DHT22;10931;52.164;5.518;2023-04-08T06:58:35;17.20;59.60
21540;DHT22;10931;52.164;5.518;2023-04-08T07:01:04;17.20;59.50
21540;DHT22;10931;52.164;5.518;2023-04-08T07:03:35;17.20;59.50
21540;DHT22;10931;52.164;5.518;2023-04-08T07:06:02;17.20;59.50
21540;DHT22;10931;52.164;5.518;2023-04-08T07:08:31;17.20;59.50
21540;DHT22;10931;52.164;5.518;2023-04-08T07:10:57;17.20;59.50
21540;DHT22;10931;52.164;5.518;2023-04-08T07:13:22;17.20;59.50
21540;DHT22;10931;52.164;5.518;2023-04-08T07:15:50;17.20;59.60
21540;DHT22;10931;52.164;5.518;2023-04-08T07:18:16;17.20;59.50
21540;DHT22;10931;52.164;5.518;2023-04-08T07:20:44;17.20;59.60
21540;DHT22;10931;52.164;5.518;2023-04-08T07:23:15;17.20;59.60
21540;DHT22;10931;52.164;5.518;2023-04-08T07:25:41;17.20;59.40
21540;DHT22;10931;52.164;5.518;2023-04-08T07:28:09;17.20;59.60
21540;DHT22;10931;52.164;5.518;2023-04-08T07:30:38;17.20;59.60
21540;DHT22;10931;52.164;5.518;2023-04-08T07:33:06;17.20;59.60
21540;DHT22;10931;52.164;5.518;2023-04-08T07:35:32;17.20;59.60
21540;DHT22;10931;52.164;5.518;2023-04-08T07:37:58;17.20;59.60
21540;DHT22;10931;52.164;5.518;2023-04-08T07:40:38;17.20;59.50
21540;DHT22;10931;52.164;5.518;2023-04-08T07:43:03;17.20;59.60
21540;DHT22;10931;52.164;5.518;2023-04-08T07:45:45;17.20;59.60
21540;DHT22;10931;52.164;5.518;2023-04-08T07:48:10;17.20;59.60
21540;DHT22;10931;52.164;5.518;2023-04-08T07:50:36;17.20;59.50
21540;DHT22;10931;52.164;5.518;2023-04-08T07:53:11;17.20;59.60
21540;DHT22;10931;52.164;5.518;2023-04-08T07:55:41;17.20;59.50
21540;DHT22;10931;52.164;5.518;2023-04-08T07:58:07;17.20;59.50
21540;DHT22;10931;52.164;5.518;2023-04-08T08:00:33;17.20;59.50
21540;DHT22;10931;52.164;5.518;2023-04-08T08:03:01;17.20;59.50
21540;DHT22;10931;52.164;5.518;2023-04-08T08:05:35;17.20;59.50
21540;DHT22;10931;52.164;5.518;2023-04-08T08:08:10;17.20;59.60
21540;DHT22;10931;52.164;5.518;2023-04-08T08:10:37;17.20;59.50
21540;DHT22;10931;52.164;5.518;2023-04-08T08:13:06;17.20;59.60
21540;DHT22;10931;52.164;5.518;2023-04-08T08:15:41;17.20;59.60
21540;DHT22;10931;52.164;5.518;2023-04-08T08:18:06;17.10;59.50
21540;DHT22;10931;52.164;5.518;2023-04-08T08:20:34;17.20;59.50
21540;DHT22;10931;52.164;5.518;2023-04-08T08:23:05;17.20;59.60
21540;DHT22;10931;52.164;5.518;2023-04-08T08:25:30;17.10;59.50
21540;DHT22;10931;52.164;5.518;2023-04-08T08:27:56;17.20;59.60
21540;DHT22;10931;52.164;5.518;2023-04-08T08:30:24;17.10;59.50
21540;DHT22;10931;52.164;5.518;2023-04-08T08:32:58;17.10;59.50
21540;DHT22;10931;52.164;5.518;2023-04-08T08:35:29;17.10;59.60
21540;DHT22;10931;52.164;5.518;2023-04-08T08:37:58;17.20;59.60
21540;DHT22;10931;52.164;5.518;2023-04-08T08:40:24;17.10;59.60
21540;DHT22;10931;52.164;5.518;2023-04-08T08:42:52;17.10;59.50
21540;DHT22;10931;52.164;5.518;2023-04-08T08:45:21;17.20;59.60
21540;DHT22;10931;52.164;5.518;2023-04-08T08:47:46;17.10;59.60
21540;DHT22;10931;52.164;5.518;2023-04-08T08:50:15;17.20;59.60
21540;DHT22;10931;52.164;5.518;2023-04-08T08:52:48;17.20;59.60
21540;DHT22;10931;52.164;5.518;2023-04-08T08:55:22;17.20;59.60
21540;DHT22;10931;52.164;5.518;2023-04-08T08:57:51;17.20;59.60
21540;DHT22;10931;52.164;5.518;2023-04-08T09:00:30;17.20;59.60
21540;DHT22;10931;52.164;5.518;2023-04-08T09:03:18;17.20;59.70
21540;DHT22;10931;52.164;5.518;2023-04-08T09:05:52;17.20;59.60
21540;DHT22;10931;52.164;5.518;2023-04-08T09:08:28;17.20;59.70
21540;DHT22;10931;52.164;5.518;2023-04-08T09:10:55;17.20;59.70
21540;DHT22;10931;52.164;5.518;2023-04-08T09:13:23;17.20;59.70
21540;DHT22;10931;52.164;5.518;2023-04-08T09:18:46;17.20;59.70
21540;DHT22;10931;52.164;5.518;2023-04-08T09:21:22;17.20;59.70
21540;DHT22;10931;52.164;5.518;2023-04-08T09:23:50;17.20;59.70
21540;DHT22;10931;52.164;5.518;2023-04-08T09:26:18;17.20;59.70
21540;DHT22;10931;52.164;5.518;2023-04-08T09:29:00;17.30;59.70
21540;DHT22;10931;52.164;5.518;2023-04-08T09:31:33;17.30;59.70
21540;DHT22;10931;52.164;5.518;2023-04-08T09:34:10;17.30;59.70
21540;DHT22;10931;52.164;5.518;2023-04-08T09:36:36;17.30;59.70
21540;DHT22;10931;52.164;5.518;2023-04-08T09:39:02;17.30;59.70
21540;DHT22;10931;52.164;5.518;2023-04-08T09:41:33;17.30;59.70
21540;DHT22;10931;52.164;5.518;2023-04-08T09:43:59;17.30;59.70
21540;DHT22;10931;52.164;5.518;2023-04-08T09:51:52;17.30;59.70
21540;DHT22;10931;52.164;5.518;2023-04-08T09:54:24;17.30;59.70
21540;DHT22;10931;52.164;5.518;2023-04-08T09:57:00;17.30;59.70
21540;DHT22;10931;52.164;5.518;2023-04-08T09:59:36;17.30;59.70
21540;DHT22;10931;52.164;5.518;2023-04-08T10:02:08;17.30;59.70
21540;DHT22;10931;52.164;5.518;2023-04-08T10:04:43;17.30;59.70
21540;DHT22;10931;52.164;5.518;2023-04-08T10:07:17;17.40;59.80
21540;DHT22;10931;52.164;5.518;2023-04-08T10:09:45;17.40;59.70
21540;DHT22;10931;52.164;5.518;2023-04-08T10:12:11;17.40;59.70
21540;DHT22;10931;52.164;5.518;2023-04-08T10:14:38;17.40;59.70
21540;DHT22;10931;52.164;5.518;2023-04-08T10:17:31;17.40;59.70
21540;DHT22;10931;52.164;5.518;2023-04-08T10:20:01;17.40;59.70
21540;DHT22;10931;52.164;5.518;2023-04-08T10:27:44;17.40;59.70
21540;DHT22;10931;52.164;5.518;2023-04-08T10:32:59;17.40;59.60
21540;DHT22;10931;52.164;5.518;2023-04-08T10:35:37;17.50;59.60
21540;DHT22;10931;52.164;5.518;2023-04-08T10:38:12;17.50;59.60
21540;DHT22;10931;52.164;5.518;2023-04-08T10:40:42;17.50;59.60
21540;DHT22;10931;52.164;5.518;2023-04-08T10:43:11;17.50;59.60
21540;DHT22;10931;52.164;5.518;2023-04-08T10:45:38;17.50;59.60
21540;DHT22;10931;52.164;5.518;2023-04-08T10:48:27;17.50;59.60
21540;DHT22;10931;52.164;5.518;2023-04-08T10:51:01;17.50;59.60
21540;DHT22;10931;52.164;5.518;2023-04-08T10:53:32;17.50;59.60
21540;DHT22;10931;52.164;5.518;2023-04-08T10:56:08;17.60;59.60
21540;DHT22;10931;52.164;5.518;2023-04-08T10:58:52;17.60;59.60
21540;DHT22;10931;52.164;5.518;2023-04-08T11:01:20;17.60;59.60
21540;DHT22;10931;52.164;5.518;2023-04-08T11:03:47;17.60;59.60
21540;DHT22;10931;52.164;5.518;2023-04-08T11:06:13;17.70;59.70
21540;DHT22;10931;52.164;5.518;2023-04-08T11:08:39;17.70;59.60
21540;DHT22;10931;52.164;5.518;2023-04-08T11:11:05;17.70;59.60
21540;DHT22;10931;52.164;5.518;2023-04-08T11:13:39;17.70;59.60
21540;DHT22;10931;52.164;5.518;2023-04-08T11:16:06;17.80;59.70
21540;DHT22;10931;52.164;5.518;2023-04-08T11:18:42;17.80;59.70
21540;DHT22;10931;52.164;5.518;2023-04-08T11:21:16;17.80;59.70
21540;DHT22;10931;52.164;5.518;2023-04-08T11:23:48;17.80;59.70
21540;DHT22;10931;52.164;5.518;2023-04-08T11:26:18;17.80;59.60
21540;DHT22;10931;52.164;5.518;2023-04-08T11:28:45;17.80;59.60
21540;DHT22;10931;52.164;5.518;2023-04-08T11:31:17;17.90;59.60
21540;DHT22;10931;52.164;5.518;2023-04-08T11:33:47;17.90;59.70
21540;DHT22;10931;52.164;5.518;2023-04-08T11:36:17;17.90;59.70
21540;DHT22;10931;52.164;5.518;2023-04-08T11:38:46;17.90;59.60
21540;DHT22;10931;52.164;5.518;2023-04-08T11:41:18;17.90;59.60
21540;DHT22;10931;52.164;5.518;2023-04-08T11:43:53;18.00;59.60
21540;DHT22;10931;52.164;5.518;2023-04-08T11:46:22;18.00;59.60
21540;DHT22;10931;52.164;5.518;2023-04-08T11:49:18;18.00;59.60
21540;DHT22;10931;52.164;5.518;2023-04-08T11:51:54;18.00;59.50
21540;DHT22;10931;52.164;5.518;2023-04-08T11:54:32;18.00;59.60
21540;DHT22;10931;52.164;5.518;2023-04-08T11:56:58;18.00;59.60
21540;DHT22;10931;52.164;5.518;2023-04-08T11:59:25;18.10;59.50
21540;DHT22;10931;52.164;5.518;2023-04-08T12:01:51;18.10;59.50
21540;DHT22;10931;52.164;5.518;2023-04-08T12:04:22;18.10;59.50
21540;DHT22;10931;52.164;5.518;2023-04-08T12:07:27;18.10;59.50
21540;DHT22;10931;52.164;5.518;2023-04-08T12:09:58;18.10;59.40
21540;DHT22;10931;52.164;5.518;2023-04-08T12:12:49;18.10;59.40
21540;DHT22;10931;52.164;5.518;2023-04-08T12:15:47;18.20;59.40
21540;DHT22;10931;52.164;5.518;2023-04-08T12:18:24;18.20;59.40
21540;DHT22;10931;52.164;5.518;2023-04-08T12:21:19;18.20;59.40
21540;DHT22;10931;52.164;5.518;2023-04-08T12:23:50;18.20;59.30
21540;DHT22;10931;52.164;5.518;2023-04-08T12:26:33;18.30;59.30
21540;DHT22;10931;52.164;5.518;2023-04-08T12:29:15;18.30;59.30
21540;DHT22;10931;52.164;5.518;2023-04-08T12:34:35;18.30;59.30
21540;DHT22;10931;52.164;5.518;2023-04-08T12:37:11;18.40;59.30
21540;DHT22;10931;52.164;5.518;2023-04-08T12:40:10;18.40;59.30
21540;DHT22;10931;52.164;5.518;2023-04-08T12:42:42;18.40;59.30
21540;DHT22;10931;52.164;5.518;2023-04-08T12:45:16;18.40;59.20
21540;DHT22;10931;52.164;5.518;2023-04-08T12:48:03;18.40;59.20
21540;DHT22;10931;52.164;5.518;2023-04-08T12:50:28;18.40;59.20
21540;DHT22;10931;52.164;5.518;2023-04-08T12:52:54;18.40;59.20
21540;DHT22;10931;52.164;5.518;2023-04-08T12:55:19;18.40;59.20
21540;DHT22;10931;52.164;5.518;2023-04-08T12:57:52;18.40;59.20
21540;DHT22;10931;52.164;5.518;2023-04-08T13:03:37;18.40;59.10
21540;DHT22;10931;52.164;5.518;2023-04-08T13:06:05;18.50;59.10
21540;DHT22;10931;52.164;5.518;2023-04-08T13:08:34;18.50;59.10
21540;DHT22;10931;52.164;5.518;2023-04-08T13:11:00;18.50;59.10
21540;DHT22;10931;52.164;5.518;2023-04-08T13:16:06;18.50;59.00
21540;DHT22;10931;52.164;5.518;2023-04-08T13:18:53;18.50;59.00
21540;DHT22;10931;52.164;5.518;2023-04-08T13:21:22;18.50;58.90
21540;DHT22;10931;52.164;5.518;2023-04-08T13:23:50;18.50;58.90
21540;DHT22;10931;52.164;5.518;2023-04-08T13:26:19;18.60;58.90
21540;DHT22;10931;52.164;5.518;2023-04-08T13:28:48;18.60;58.90
21540;DHT22;10931;52.164;5.518;2023-04-08T13:31:19;18.60;58.90
21540;DHT22;10931;52.164;5.518;2023-04-08T13:33:47;18.60;58.80
21540;DHT22;10931;52.164;5.518;2023-04-08T13:36:15;18.60;58.80
21540;DHT22;10931;52.164;5.518;2023-04-08T13:38:41;18.60;58.80
21540;DHT22;10931;52.164;5.518;2023-04-08T13:43:44;18.60;58.80
21540;DHT22;10931;52.164;5.518;2023-04-08T13:46:13;18.70;58.80
21540;DHT22;10931;52.164;5.518;2023-04-08T13:48:42;18.70;58.70
21540;DHT22;10931;52.164;5.518;2023-04-08T13:51:10;18.70;58.70
21540;DHT22;10931;52.164;5.518;2023-04-08T13:53:38;18.70;58.70
21540;DHT22;10931;52.164;5.518;2023-04-08T13:56:07;18.70;58.70
21540;DHT22;10931;52.164;5.518;2023-04-08T13:58:37;18.70;58.70
21540;DHT22;10931;52.164;5.518;2023-04-08T14:01:06;18.70;58.70
21540;DHT22;10931;52.164;5.518;2023-04-08T14:03:34;18.70;58.70
21540;DHT22;10931;52.164;5.518;2023-04-08T14:06:02;18.70;58.60
21540;DHT22;10931;52.164;5.518;2023-04-08T14:08:28;18.80;58.70
21540;DHT22;10931;52.164;5.518;2023-04-08T14:10:59;18.80;58.70
21540;DHT22;10931;52.164;5.518;2023-04-08T14:13:27;18.80;58.70
21540;DHT22;10931;52.164;5.518;2023-04-08T14:15:52;18.80;58.60
21540;DHT22;10931;52.164;5.518;2023-04-08T14:18:21;18.80;58.70
21540;DHT22;10931;52.164;5.518;2023-04-08T14:20:48;18.80;58.60
21540;DHT22;10931;52.164;5.518;2023-04-08T14:23:17;18.90;58.70
21540;DHT22;10931;52.164;5.518;2023-04-08T14:25:48;18.90;58.70
21540;DHT22;10931;52.164;5.518;2023-04-08T14:28:14;18.90;58.70
21540;DHT22;10931;52.164;5.518;2023-04-08T14:30:40;18.90;58.60
21540;DHT22;10931;52.164;5.518;2023-04-08T14:33:07;18.90;58.70
21540;DHT22;10931;52.164;5.518;2023-04-08T14:35:33;18.90;58.60
21540;DHT22;10931;52.164;5.518;2023-04-08T14:37:59;18.90;58.70
21540;DHT22;10931;52.164;5.518;2023-04-08T14:40:25;18.90;58.60
21540;DHT22;10931;52.164;5.518;2023-04-08T14:42:52;19.00;58.70
21540;DHT22;10931;52.164;5.518;2023-04-08T14:45:21;18.90;58.60
21540;DHT22;10931;52.164;5.518;2023-04-08T14:47:49;18.90;58.60
21540;DHT22;10931;52.164;5.518;2023-04-08T14:50:18;19.00;58.70
21540;DHT22;10931;52.164;5.518;2023-04-08T14:52:46;19.00;58.70
21540;DHT22;10931;52.164;5.518;2023-04-08T14:55:15;19.00;58.60
21540;DHT22;10931;52.164;5.518;2023-04-08T14:57:41;19.00;58.60
21540;DHT22;10931;52.164;5.518;2023-04-08T15:00:36;19.00;58.60
21540;DHT22;10931;52.164;5.518;2023-04-08T15:03:25;19.00;58.60
21540;DHT22;10931;52.164;5.518;2023-04-08T15:06:20;19.00;58.70
21540;DHT22;10931;52.164;5.518;2023-04-08T15:08:52;19.10;58.60
21540;DHT22;10931;52.164;5.518;2023-04-08T15:11:26;19.10;58.60
21540;DHT22;10931;52.164;5.518;2023-04-08T15:13:53;19.10;58.60
21540;DHT22;10931;52.164;5.518;2023-04-08T15:16:30;19.10;58.60
21540;DHT22;10931;52.164;5.518;2023-04-08T15:18:56;19.10;58.60
21540;DHT22;10931;52.164;5.518;2023-04-08T15:21:29;19.10;58.50
21540;DHT22;10931;52.164;5.518;2023-04-08T15:23:55;19.10;58.70
21540;DHT22;10931;52.164;5.518;2023-04-08T15:26:21;19.10;58.50
21540;DHT22;10931;52.164;5.518;2023-04-08T15:28:52;19.20;58.60
21540;DHT22;10931;52.164;5.518;2023-04-08T15:31:18;19.20;58.50
21540;DHT22;10931;52.164;5.518;2023-04-08T15:33:47;19.20;58.50
21540;DHT22;10931;52.164;5.518;2023-04-08T15:36:15;19.20;58.50
21540;DHT22;10931;52.164;5.518;2023-04-08T15:38:47;19.20;58.50
21540;DHT22;10931;52.164;5.518;2023-04-08T15:41:20;19.20;58.50
21540;DHT22;10931;52.164;5.518;2023-04-08T15:43:48;19.20;58.50
21540;DHT22;10931;52.164;5.518;2023-04-08T15:46:26;19.20;58.50
21540;DHT22;10931;52.164;5.518;2023-04-08T15:48:52;19.20;58.40
21540;DHT22;10931;52.164;5.518;2023-04-08T15:51:22;19.20;58.40
21540;DHT22;10931;52.164;5.518;2023-04-08T15:53:48;19.20;58.40
21540;DHT22;10931;52.164;5.518;2023-04-08T16:17:01;19.30;58.40
21540;DHT22;10931;52.164;5.518;2023-04-08T16:19:39;19.30;58.50
21540;DHT22;10931;52.164;5.518;2023-04-08T16:22:06;19.30;58.50
21540;DHT22;10931;52.164;5.518;2023-04-08T16:24:34;19.30;58.50
21540;DHT22;10931;52.164;5.518;2023-04-08T16:27:01;19.30;58.50
21540;DHT22;10931;52.164;5.518;2023-04-08T16:29:26;19.30;58.50
21540;DHT22;10931;52.164;5.518;2023-04-08T16:31:52;19.40;58.50
21540;DHT22;10931;52.164;5.518;2023-04-08T16:34:18;19.30;58.50
21540;DHT22;10931;52.164;5.518;2023-04-08T16:37:02;19.40;58.50